sensor_id;sensor_type;location;lat;lon;timestamp;P1;durP1;ratioP1;P2;durP2;ratioP2
41755;SDS011;27435;48.480;9.258;2022-12-18T00:01:58;98.53;;;31.20;;
41755;SDS011;27435;48.480;9.258;2022-12-18T00:04:24;104.87;;;36.37;;
41755;SDS011;27435;48.480;9.258;2022-12-18T00:06:51;82.10;;;28.50;;
41755;SDS011;27435;48.480;9.258;2022-12-18T00:09:17;82.03;;;27.20;;
41755;SDS011;27435;48.480;9.258;2022-12-18T00:11:43;86.70;;;26.80;;
41755;SDS011;27435;48.480;9.258;2022-12-18T00:14:10;66.33;;;25.10;;
41755;SDS011;27435;48.480;9.258;2022-12-18T00:16:37;84.63;;;27.53;;
41755;SDS011;27435;48.480;9.258;2022-12-18T00:19:03;97.90;;;29.03;;
41755;SDS011;27435;48.480;9.258;2022-12-18T00:21:30;74.70;;;24.37;;
41755;SDS011;27435;48.480;9.258;2022-12-18T00:23:56;65.00;;;24.13;;
41755;SDS011;27435;48.480;9.258;2022-12-18T00:26:24;64.17;;;22.57;;
41755;SDS011;27435;48.480;9.258;2022-12-18T00:28:51;73.90;;;24.77;;
41755;SDS011;27435;48.480;9.258;2022-12-18T00:31:21;80.63;;;24.37;;
41755;SDS011;27435;48.480;9.258;2022-12-18T00:33:49;69.23;;;24.17;;
41755;SDS011;27435;48.480;9.258;2022-12-18T00:36:16;75.70;;;25.80;;
41755;SDS011;27435;48.480;9.258;2022-12-18T00:38:44;76.70;;;23.57;;
41755;SDS011;27435;48.480;9.258;2022-12-18T00:41:11;76.87;;;25.73;;
41755;SDS011;27435;48.480;9.258;2022-12-18T00:43:38;64.27;;;23.47;;
41755;SDS011;27435;48.480;9.258;2022-12-18T00:46:04;74.37;;;24.47;;
41755;SDS011;27435;48.480;9.258;2022-12-18T00:48:30;79.77;;;25.30;;
41755;SDS011;27435;48.480;9.258;2022-12-18T00:50:56;78.67;;;24.20;;
41755;SDS011;27435;48.480;9.258;2022-12-18T00:53:22;59.13;;;19.67;;
41755;SDS011;27435;48.480;9.258;2022-12-18T00:55:48;73.00;;;23.37;;
41755;SDS011;27435;48.480;9.258;2022-12-18T00:58:14;85.93;;;26.10;;
41755;SDS011;27435;48.480;9.258;2022-12-18T01:00:40;65.23;;;22.03;;
41755;SDS011;27435;48.480;9.258;2022-12-18T01:03:07;89.90;;;25.53;;
41755;SDS011;27435;48.480;9.258;2022-12-18T01:05:32;90.43;;;29.10;;
41755;SDS011;27435;48.480;9.258;2022-12-18T01:07:58;76.13;;;26.13;;
41755;SDS011;27435;48.480;9.258;2022-12-18T01:10:24;78.80;;;26.40;;
41755;SDS011;27435;48.480;9.258;2022-12-18T01:12:50;83.57;;;24.83;;
41755;SDS011;27435;48.480;9.258;2022-12-18T01:15:16;70.93;;;25.30;;
41755;SDS011;27435;48.480;9.258;2022-12-18T01:17:43;73.57;;;23.83;;
41755;SDS011;27435;48.480;9.258;2022-12-18T01:20:09;75.60;;;25.77;;
41755;SDS011;27435;48.480;9.258;2022-12-18T01:22:36;68.93;;;25.87;;
41755;SDS011;27435;48.480;9.258;2022-12-18T01:25:03;78.40;;;24.77;;
41755;SDS011;27435;48.480;9.258;2022-12-18T01:27:29;75.03;;;26.10;;
41755;SDS011;27435;48.480;9.258;2022-12-18T01:29:54;78.00;;;26.40;;
41755;SDS011;27435;48.480;9.258;2022-12-18T01:32:20;69.33;;;22.37;;
41755;SDS011;27435;48.480;9.258;2022-12-18T01:34:47;60.57;;;23.00;;
41755;SDS011;27435;48.480;9.258;2022-12-18T01:37:12;69.43;;;22.17;;
41755;SDS011;27435;48.480;9.258;2022-12-18T01:39:38;59.13;;;21.90;;
41755;SDS011;27435;48.480;9.258;2022-12-18T01:42:08;64.80;;;22.43;;
41755;SDS011;27435;48.480;9.258;2022-12-18T01:47:38;63.60;;;21.43;;
41755;SDS011;27435;48.480;9.258;2022-12-18T01:50:23;55.20;;;21.00;;
41755;SDS011;27435;48.480;9.258;2022-12-18T01:52:53;50.73;;;20.77;;
41755;SDS011;27435;48.480;9.258;2022-12-18T01:55:24;56.30;;;20.33;;
41755;SDS011;27435;48.480;9.258;2022-12-18T01:57:55;65.13;;;22.30;;
41755;SDS011;27435;48.480;9.258;2022-12-18T02:00:22;64.00;;;23.80;;
41755;SDS011;27435;48.480;9.258;2022-12-18T02:02:49;60.37;;;19.27;;
41755;SDS011;27435;48.480;9.258;2022-12-18T02:05:16;70.03;;;21.00;;
41755;SDS011;27435;48.480;9.258;2022-12-18T02:08:06;54.08;;;19.35;;
41755;SDS011;27435;48.480;9.258;2022-12-18T02:10:43;62.03;;;22.57;;
41755;SDS011;27435;48.480;9.258;2022-12-18T02:13:32;59.80;;;19.50;;
41755;SDS011;27435;48.480;9.258;2022-12-18T02:18:37;62.93;;;21.77;;
41755;SDS011;27435;48.480;9.258;2022-12-18T02:26:59;71.57;;;23.30;;
41755;SDS011;27435;48.480;9.258;2022-12-18T02:29:34;82.07;;;24.20;;
41755;SDS011;27435;48.480;9.258;2022-12-18T02:32:06;76.00;;;23.58;;
41755;SDS011;27435;48.480;9.258;2022-12-18T02:34:37;76.50;;;23.47;;
41755;SDS011;27435;48.480;9.258;2022-12-18T02:37:05;73.00;;;23.07;;
41755;SDS011;27435;48.480;9.258;2022-12-18T02:39:34;76.13;;;23.77;;
41755;SDS011;27435;48.480;9.258;2022-12-18T02:42:02;75.50;;;21.40;;
41755;SDS011;27435;48.480;9.258;2022-12-18T02:44:32;67.30;;;25.27;;
41755;SDS011;27435;48.480;9.258;2022-12-18T02:47:09;58.07;;;21.17;;
41755;SDS011;27435;48.480;9.258;2022-12-18T02:57:46;61.30;;;18.90;;
41755;SDS011;27435;48.480;9.258;2022-12-18T03:00:20;62.20;;;18.40;;
41755;SDS011;27435;48.480;9.258;2022-12-18T03:05:43;53.23;;;17.97;;
41755;SDS011;27435;48.480;9.258;2022-12-18T03:08:23;47.27;;;19.03;;
41755;SDS011;27435;48.480;9.258;2022-12-18T03:10:57;55.27;;;18.83;;
41755;SDS011;27435;48.480;9.258;2022-12-18T03:15:58;41.40;;;17.20;;
41755;SDS011;27435;48.480;9.258;2022-12-18T03:18:27;52.57;;;19.97;;
41755;SDS011;27435;48.480;9.258;2022-12-18T03:20:58;59.40;;;20.30;;
41755;SDS011;27435;48.480;9.258;2022-12-18T03:23:29;48.03;;;17.03;;
41755;SDS011;27435;48.480;9.258;2022-12-18T03:26:02;44.67;;;18.63;;
41755;SDS011;27435;48.480;9.258;2022-12-18T03:28:32;52.90;;;18.50;;
41755;SDS011;27435;48.480;9.258;2022-12-18T03:31:02;57.47;;;19.20;;
41755;SDS011;27435;48.480;9.258;2022-12-18T03:36:08;42.50;;;15.80;;
41755;SDS011;27435;48.480;9.258;2022-12-18T03:38:40;47.97;;;17.77;;
41755;SDS011;27435;48.480;9.258;2022-12-18T03:41:10;40.30;;;16.47;;
41755;SDS011;27435;48.480;9.258;2022-12-18T03:52:22;43.50;;;17.67;;
41755;SDS011;27435;48.480;9.258;2022-12-18T03:54:58;46.70;;;16.87;;
41755;SDS011;27435;48.480;9.258;2022-12-18T03:57:26;52.33;;;19.57;;
41755;SDS011;27435;48.480;9.258;2022-12-18T03:59:56;43.93;;;17.33;;
41755;SDS011;27435;48.480;9.258;2022-12-18T04:02:25;46.17;;;16.47;;
41755;SDS011;27435;48.480;9.258;2022-12-18T04:04:52;46.90;;;17.80;;
41755;SDS011;27435;48.480;9.258;2022-12-18T04:07:20;49.97;;;17.67;;
41755;SDS011;27435;48.480;9.258;2022-12-18T04:09:48;50.17;;;16.03;;
41755;SDS011;27435;48.480;9.258;2022-12-18T04:12:15;48.83;;;16.67;;
41755;SDS011;27435;48.480;9.258;2022-12-18T04:14:40;49.60;;;17.90;;
41755;SDS011;27435;48.480;9.258;2022-12-18T04:17:06;59.03;;;19.87;;
41755;SDS011;27435;48.480;9.258;2022-12-18T04:19:31;47.70;;;15.90;;
41755;SDS011;27435;48.480;9.258;2022-12-18T04:21:57;49.93;;;18.73;;
41755;SDS011;27435;48.480;9.258;2022-12-18T04:24:23;54.73;;;18.67;;
41755;SDS011;27435;48.480;9.258;2022-12-18T04:26:48;55.73;;;19.83;;
41755;SDS011;27435;48.480;9.258;2022-12-18T04:29:14;50.30;;;19.50;;
41755;SDS011;27435;48.480;9.258;2022-12-18T04:31:40;58.47;;;18.43;;
41755;SDS011;27435;48.480;9.258;2022-12-18T04:34:05;60.13;;;18.97;;
41755;SDS011;27435;48.480;9.258;2022-12-18T04:36:31;48.60;;;18.27;;
41755;SDS011;27435;48.480;9.258;2022-12-18T04:38:56;50.17;;;18.60;;
41755;SDS011;27435;48.480;9.258;2022-12-18T04:41:22;49.87;;;17.07;;
41755;SDS011;27435;48.480;9.258;2022-12-18T04:43:48;51.87;;;17.00;;
41755;SDS011;27435;48.480;9.258;2022-12-18T04:46:13;48.23;;;17.00;;
41755;SDS011;27435;48.480;9.258;2022-12-18T04:48:39;46.43;;;15.87;;
41755;SDS011;27435;48.480;9.258;2022-12-18T04:51:05;59.37;;;19.30;;
41755;SDS011;27435;48.480;9.258;2022-12-18T04:53:31;46.33;;;18.00;;
41755;SDS011;27435;48.480;9.258;2022-12-18T04:56:04;52.17;;;15.93;;
41755;SDS011;27435;48.480;9.258;2022-12-18T04:58:34;49.83;;;17.57;;
41755;SDS011;27435;48.480;9.258;2022-12-18T05:01:00;51.17;;;18.60;;
41755;SDS011;27435;48.480;9.258;2022-12-18T05:03:26;41.00;;;15.77;;
41755;SDS011;27435;48.480;9.258;2022-12-18T05:05:52;56.57;;;17.97;;
41755;SDS011;27435;48.480;9.258;2022-12-18T05:08:18;47.90;;;17.83;;
41755;SDS011;27435;48.480;9.258;2022-12-18T05:10:44;48.50;;;17.30;;
41755;SDS011;27435;48.480;9.258;2022-12-18T05:13:10;47.87;;;16.13;;
41755;SDS011;27435;48.480;9.258;2022-12-18T05:15:35;37.77;;;14.03;;
41755;SDS011;27435;48.480;9.258;2022-12-18T05:18:01;46.10;;;17.00;;
41755;SDS011;27435;48.480;9.258;2022-12-18T05:20:28;50.33;;;17.53;;
41755;SDS011;27435;48.480;9.258;2022-12-18T05:22:54;49.67;;;16.13;;
41755;SDS011;27435;48.480;9.258;2022-12-18T05:25:20;44.73;;;13.57;;
41755;SDS011;27435;48.480;9.258;2022-12-18T05:27:47;48.27;;;16.00;;
41755;SDS011;27435;48.480;9.258;2022-12-18T05:30:13;40.70;;;15.80;;
41755;SDS011;27435;48.480;9.258;2022-12-18T05:32:39;45.13;;;14.23;;
41755;SDS011;27435;48.480;9.258;2022-12-18T05:35:06;39.20;;;13.90;;
41755;SDS011;27435;48.480;9.258;2022-12-18T05:37:32;49.63;;;17.63;;
41755;SDS011;27435;48.480;9.258;2022-12-18T05:39:58;40.80;;;14.10;;
41755;SDS011;27435;48.480;9.258;2022-12-18T05:42:24;45.00;;;13.93;;
41755;SDS011;27435;48.480;9.258;2022-12-18T05:44:50;49.73;;;18.10;;
41755;SDS011;27435;48.480;9.258;2022-12-18T05:47:15;41.07;;;14.53;;
41755;SDS011;27435;48.480;9.258;2022-12-18T05:49:41;48.13;;;16.13;;
41755;SDS011;27435;48.480;9.258;2022-12-18T05:52:06;52.37;;;16.47;;
41755;SDS011;27435;48.480;9.258;2022-12-18T05:54:32;48.23;;;16.40;;
41755;SDS011;27435;48.480;9.258;2022-12-18T05:56:58;48.57;;;15.30;;
41755;SDS011;27435;48.480;9.258;2022-12-18T05:59:23;40.97;;;15.27;;
41755;SDS011;27435;48.480;9.258;2022-12-18T06:01:49;56.00;;;16.63;;
41755;SDS011;27435;48.480;9.258;2022-12-18T06:04:15;49.97;;;16.57;;
41755;SDS011;27435;48.480;9.258;2022-12-18T06:06:40;37.03;;;13.03;;
41755;SDS011;27435;48.480;9.258;2022-12-18T06:09:06;38.63;;;13.53;;
41755;SDS011;27435;48.480;9.258;2022-12-18T06:11:34;41.00;;;15.53;;
41755;SDS011;27435;48.480;9.258;2022-12-18T06:14:02;42.70;;;14.23;;
41755;SDS011;27435;48.480;9.258;2022-12-18T06:16:28;55.30;;;16.93;;
41755;SDS011;27435;48.480;9.258;2022-12-18T06:18:58;45.63;;;15.67;;
41755;SDS011;27435;48.480;9.258;2022-12-18T06:21:26;42.00;;;15.10;;
41755;SDS011;27435;48.480;9.258;2022-12-18T06:23:52;36.37;;;12.67;;
41755;SDS011;27435;48.480;9.258;2022-12-18T06:26:18;45.83;;;15.37;;
41755;SDS011;27435;48.480;9.258;2022-12-18T06:28:43;50.07;;;16.17;;
41755;SDS011;27435;48.480;9.258;2022-12-18T06:31:09;45.93;;;15.70;;
41755;SDS011;27435;48.480;9.258;2022-12-18T06:33:36;44.60;;;16.37;;
41755;SDS011;27435;48.480;9.258;2022-12-18T06:36:06;38.30;;;13.73;;
41755;SDS011;27435;48.480;9.258;2022-12-18T06:38:34;45.07;;;14.93;;
41755;SDS011;27435;48.480;9.258;2022-12-18T06:41:06;43.93;;;17.67;;
41755;SDS011;27435;48.480;9.258;2022-12-18T06:43:35;44.53;;;15.43;;
41755;SDS011;27435;48.480;9.258;2022-12-18T06:46:01;44.20;;;16.87;;
41755;SDS011;27435;48.480;9.258;2022-12-18T06:48:27;44.83;;;14.67;;
41755;SDS011;27435;48.480;9.258;2022-12-18T06:50:57;56.00;;;18.17;;
41755;SDS011;27435;48.480;9.258;2022-12-18T06:53:22;52.73;;;17.00;;
41755;SDS011;27435;48.480;9.258;2022-12-18T06:55:48;48.43;;;16.57;;
41755;SDS011;27435;48.480;9.258;2022-12-18T06:58:17;42.90;;;15.50;;
41755;SDS011;27435;48.480;9.258;2022-12-18T07:00:48;38.50;;;13.97;;
41755;SDS011;27435;48.480;9.258;2022-12-18T07:03:13;45.10;;;15.53;;
41755;SDS011;27435;48.480;9.258;2022-12-18T07:05:39;48.80;;;17.87;;
41755;SDS011;27435;48.480;9.258;2022-12-18T07:08:05;46.17;;;14.97;;
41755;SDS011;27435;48.480;9.258;2022-12-18T07:10:31;43.40;;;15.43;;
41755;SDS011;27435;48.480;9.258;2022-12-18T07:12:57;47.30;;;15.70;;
41755;SDS011;27435;48.480;9.258;2022-12-18T07:15:22;43.30;;;14.03;;
41755;SDS011;27435;48.480;9.258;2022-12-18T07:17:48;44.20;;;14.67;;
41755;SDS011;27435;48.480;9.258;2022-12-18T07:20:13;48.63;;;13.23;;
41755;SDS011;27435;48.480;9.258;2022-12-18T07:22:39;58.00;;;16.67;;
41755;SDS011;27435;48.480;9.258;2022-12-18T07:25:05;44.53;;;13.10;;
41755;SDS011;27435;48.480;9.258;2022-12-18T07:27:31;52.73;;;15.60;;
41755;SDS011;27435;48.480;9.258;2022-12-18T07:29:57;43.10;;;14.20;;
41755;SDS011;27435;48.480;9.258;2022-12-18T07:32:22;49.97;;;14.70;;
41755;SDS011;27435;48.480;9.258;2022-12-18T07:34:48;43.20;;;14.47;;
41755;SDS011;27435;48.480;9.258;2022-12-18T07:37:13;41.77;;;14.60;;
41755;SDS011;27435;48.480;9.258;2022-12-18T07:39:39;44.10;;;14.30;;
41755;SDS011;27435;48.480;9.258;2022-12-18T07:42:04;43.17;;;14.40;;
41755;SDS011;27435;48.480;9.258;2022-12-18T07:44:49;45.27;;;15.27;;
41755;SDS011;27435;48.480;9.258;2022-12-18T07:47:14;47.10;;;15.20;;
41755;SDS011;27435;48.480;9.258;2022-12-18T07:49:40;54.33;;;16.10;;
41755;SDS011;27435;48.480;9.258;2022-12-18T07:52:05;52.93;;;15.57;;
41755;SDS011;27435;48.480;9.258;2022-12-18T07:54:31;54.90;;;15.63;;
41755;SDS011;27435;48.480;9.258;2022-12-18T07:56:56;52.90;;;15.33;;
41755;SDS011;27435;48.480;9.258;2022-12-18T07:59:22;44.43;;;14.07;;
41755;SDS011;27435;48.480;9.258;2022-12-18T08:01:48;61.43;;;15.93;;
41755;SDS011;27435;48.480;9.258;2022-12-18T08:04:13;53.23;;;16.30;;
41755;SDS011;27435;48.480;9.258;2022-12-18T08:06:39;48.67;;;15.60;;
41755;SDS011;27435;48.480;9.258;2022-12-18T08:09:04;64.83;;;16.80;;
41755;SDS011;27435;48.480;9.258;2022-12-18T08:11:30;54.07;;;14.90;;
41755;SDS011;27435;48.480;9.258;2022-12-18T08:13:56;52.23;;;15.30;;
41755;SDS011;27435;48.480;9.258;2022-12-18T08:16:22;52.00;;;15.37;;
41755;SDS011;27435;48.480;9.258;2022-12-18T08:18:48;50.80;;;16.03;;
41755;SDS011;27435;48.480;9.258;2022-12-18T08:21:15;60.30;;;16.03;;
41755;SDS011;27435;48.480;9.258;2022-12-18T08:23:49;47.80;;;14.37;;
41755;SDS011;27435;48.480;9.258;2022-12-18T08:26:15;39.80;;;13.87;;
41755;SDS011;27435;48.480;9.258;2022-12-18T08:28:41;47.37;;;14.73;;
41755;SDS011;27435;48.480;9.258;2022-12-18T08:31:08;53.57;;;15.20;;
41755;SDS011;27435;48.480;9.258;2022-12-18T08:33:34;46.77;;;16.57;;
41755;SDS011;27435;48.480;9.258;2022-12-18T08:36:01;51.30;;;15.97;;
41755;SDS011;27435;48.480;9.258;2022-12-18T08:38:31;41.83;;;13.23;;
41755;SDS011;27435;48.480;9.258;2022-12-18T08:43:25;49.37;;;14.63;;
41755;SDS011;27435;48.480;9.258;2022-12-18T08:46:10;52.87;;;17.13;;
41755;SDS011;27435;48.480;9.258;2022-12-18T08:48:36;52.57;;;14.97;;
41755;SDS011;27435;48.480;9.258;2022-12-18T08:51:02;65.03;;;17.37;;
41755;SDS011;27435;48.480;9.258;2022-12-18T08:53:28;56.70;;;17.67;;
41755;SDS011;27435;48.480;9.258;2022-12-18T08:55:53;53.37;;;17.47;;
41755;SDS011;27435;48.480;9.258;2022-12-18T08:58:21;50.87;;;16.10;;
41755;SDS011;27435;48.480;9.258;2022-12-18T09:00:46;50.60;;;17.23;;
41755;SDS011;27435;48.480;9.258;2022-12-18T09:03:12;50.87;;;17.20;;
41755;SDS011;27435;48.480;9.258;2022-12-18T09:05:39;53.53;;;16.97;;
41755;SDS011;27435;48.480;9.258;2022-12-18T09:08:05;55.70;;;16.20;;
41755;SDS011;27435;48.480;9.258;2022-12-18T09:10:31;57.87;;;15.73;;
41755;SDS011;27435;48.480;9.258;2022-12-18T09:12:57;48.07;;;15.73;;
41755;SDS011;27435;48.480;9.258;2022-12-18T09:15:23;62.20;;;17.07;;
41755;SDS011;27435;48.480;9.258;2022-12-18T09:17:48;53.13;;;16.50;;
41755;SDS011;27435;48.480;9.258;2022-12-18T09:20:15;59.87;;;17.47;;
41755;SDS011;27435;48.480;9.258;2022-12-18T09:22:41;53.57;;;17.70;;
41755;SDS011;27435;48.480;9.258;2022-12-18T09:25:07;59.20;;;16.90;;
41755;SDS011;27435;48.480;9.258;2022-12-18T09:27:33;59.40;;;16.70;;
41755;SDS011;27435;48.480;9.258;2022-12-18T09:29:59;59.67;;;17.80;;
41755;SDS011;27435;48.480;9.258;2022-12-18T09:32:25;55.70;;;17.73;;
41755;SDS011;27435;48.480;9.258;2022-12-18T09:34:51;57.90;;;18.00;;
41755;SDS011;27435;48.480;9.258;2022-12-18T09:37:16;48.63;;;16.03;;
41755;SDS011;27435;48.480;9.258;2022-12-18T09:39:42;55.33;;;16.27;;
41755;SDS011;27435;48.480;9.258;2022-12-18T09:42:09;49.17;;;17.13;;
41755;SDS011;27435;48.480;9.258;2022-12-18T09:44:43;60.08;;;18.50;;
41755;SDS011;27435;48.480;9.258;2022-12-18T09:47:24;48.10;;;16.67;;
41755;SDS011;27435;48.480;9.258;2022-12-18T09:49:58;59.00;;;17.80;;
41755;SDS011;27435;48.480;9.258;2022-12-18T09:52:29;50.57;;;14.33;;
41755;SDS011;27435;48.480;9.258;2022-12-18T09:55:08;45.33;;;14.90;;
41755;SDS011;27435;48.480;9.258;2022-12-18T09:57:45;48.50;;;16.20;;
41755;SDS011;27435;48.480;9.258;2022-12-18T10:02:44;58.37;;;18.13;;
41755;SDS011;27435;48.480;9.258;2022-12-18T10:05:15;47.57;;;16.13;;
41755;SDS011;27435;48.480;9.258;2022-12-18T10:07:46;51.50;;;15.23;;
41755;SDS011;27435;48.480;9.258;2022-12-18T10:10:19;52.37;;;16.20;;
41755;SDS011;27435;48.480;9.258;2022-12-18T10:21:21;51.93;;;17.93;;
41755;SDS011;27435;48.480;9.258;2022-12-18T10:26:31;50.55;;;16.67;;
41755;SDS011;27435;48.480;9.258;2022-12-18T10:28:57;49.13;;;15.80;;
41755;SDS011;27435;48.480;9.258;2022-12-18T10:31:24;51.70;;;17.57;;
41755;SDS011;27435;48.480;9.258;2022-12-18T10:33:50;55.60;;;20.27;;
41755;SDS011;27435;48.480;9.258;2022-12-18T10:36:18;57.13;;;17.10;;
41755;SDS011;27435;48.480;9.258;2022-12-18T10:38:45;49.00;;;16.20;;
41755;SDS011;27435;48.480;9.258;2022-12-18T10:44:09;60.67;;;20.80;;
41755;SDS011;27435;48.480;9.258;2022-12-18T10:46:42;54.93;;;17.93;;
41755;SDS011;27435;48.480;9.258;2022-12-18T10:49:21;58.33;;;22.37;;
41755;SDS011;27435;48.480;9.258;2022-12-18T10:51:52;48.90;;;17.63;;
41755;SDS011;27435;48.480;9.258;2022-12-18T10:54:57;55.03;;;17.83;;
41755;SDS011;27435;48.480;9.258;2022-12-18T11:00:27;55.17;;;17.30;;
41755;SDS011;27435;48.480;9.258;2022-12-18T11:02:55;47.53;;;16.93;;
41755;SDS011;27435;48.480;9.258;2022-12-18T11:07:50;47.60;;;15.67;;
41755;SDS011;27435;48.480;9.258;2022-12-18T11:10:17;47.13;;;16.37;;
41755;SDS011;27435;48.480;9.258;2022-12-18T11:12:44;50.93;;;17.27;;
41755;SDS011;27435;48.480;9.258;2022-12-18T11:15:20;51.40;;;17.87;;
41755;SDS011;27435;48.480;9.258;2022-12-18T11:17:50;47.07;;;15.00;;
41755;SDS011;27435;48.480;9.258;2022-12-18T11:20:23;52.97;;;17.67;;
41755;SDS011;27435;48.480;9.258;2022-12-18T11:22:58;43.93;;;16.10;;
41755;SDS011;27435;48.480;9.258;2022-12-18T11:25:31;43.93;;;17.10;;
41755;SDS011;27435;48.480;9.258;2022-12-18T11:28:02;52.07;;;17.10;;
41755;SDS011;27435;48.480;9.258;2022-12-18T11:30:47;46.47;;;16.90;;
41755;SDS011;27435;48.480;9.258;2022-12-18T11:33:14;48.63;;;16.33;;
41755;SDS011;27435;48.480;9.258;2022-12-18T11:40:47;45.13;;;16.80;;
41755;SDS011;27435;48.480;9.258;2022-12-18T11:43:25;41.37;;;16.50;;
41755;SDS011;27435;48.480;9.258;2022-12-18T11:45:56;38.57;;;14.93;;
41755;SDS011;27435;48.480;9.258;2022-12-18T11:48:28;41.20;;;15.90;;
41755;SDS011;27435;48.480;9.258;2022-12-18T11:50:59;39.30;;;14.97;;
41755;SDS011;27435;48.480;9.258;2022-12-18T11:53:28;49.23;;;17.97;;
41755;SDS011;27435;48.480;9.258;2022-12-18T11:59:08;43.30;;;15.30;;
41755;SDS011;27435;48.480;9.258;2022-12-18T12:17:37;38.90;;;14.97;;
41755;SDS011;27435;48.480;9.258;2022-12-18T12:20:20;48.53;;;17.17;;
41755;SDS011;27435;48.480;9.258;2022-12-18T12:25:39;37.90;;;14.17;;
41755;SDS011;27435;48.480;9.258;2022-12-18T12:39:18;34.80;;;13.43;;
41755;SDS011;27435;48.480;9.258;2022-12-18T12:41:47;38.83;;;13.77;;
41755;SDS011;27435;48.480;9.258;2022-12-18T12:44:37;36.67;;;13.07;;
41755;SDS011;27435;48.480;9.258;2022-12-18T12:47:35;41.13;;;16.53;;
41755;SDS011;27435;48.480;9.258;2022-12-18T12:50:02;39.00;;;13.83;;
41755;SDS011;27435;48.480;9.258;2022-12-18T12:52:32;37.73;;;15.43;;
41755;SDS011;27435;48.480;9.258;2022-12-18T12:55:02;34.23;;;14.40;;
41755;SDS011;27435;48.480;9.258;2022-12-18T12:57:34;37.27;;;14.00;;
41755;SDS011;27435;48.480;9.258;2022-12-18T13:00:07;33.80;;;12.57;;
41755;SDS011;27435;48.480;9.258;2022-12-18T13:05:26;35.40;;;12.80;;
41755;SDS011;27435;48.480;9.258;2022-12-18T13:10:33;37.20;;;13.47;;
41755;SDS011;27435;48.480;9.258;2022-12-18T13:13:02;25.87;;;11.37;;
41755;SDS011;27435;48.480;9.258;2022-12-18T13:15:46;30.87;;;12.67;;
41755;SDS011;27435;48.480;9.258;2022-12-18T13:18:22;30.80;;;11.43;;
41755;SDS011;27435;48.480;9.258;2022-12-18T13:25:53;37.23;;;14.97;;
41755;SDS011;27435;48.480;9.258;2022-12-18T13:31:10;31.13;;;13.63;;
41755;SDS011;27435;48.480;9.258;2022-12-18T13:36:13;28.00;;;12.17;;
41755;SDS011;27435;48.480;9.258;2022-12-18T13:41:47;39.70;;;15.03;;
41755;SDS011;27435;48.480;9.258;2022-12-18T13:44:33;44.90;;;16.27;;
41755;SDS011;27435;48.480;9.258;2022-12-18T13:47:01;32.83;;;12.70;;
41755;SDS011;27435;48.480;9.258;2022-12-18T13:54:41;32.13;;;11.40;;
41755;SDS011;27435;48.480;9.258;2022-12-18T13:59:55;30.50;;;11.48;;
41755;SDS011;27435;48.480;9.258;2022-12-18T14:02:23;34.23;;;12.97;;
41755;SDS011;27435;48.480;9.258;2022-12-18T14:04:51;33.13;;;13.43;;
41755;SDS011;27435;48.480;9.258;2022-12-18T14:07:21;34.17;;;13.20;;
41755;SDS011;27435;48.480;9.258;2022-12-18T14:09:59;33.93;;;12.97;;
41755;SDS011;27435;48.480;9.258;2022-12-18T14:12:28;30.93;;;12.93;;
41755;SDS011;27435;48.480;9.258;2022-12-18T14:17:49;30.47;;;12.40;;
41755;SDS011;27435;48.480;9.258;2022-12-18T14:20:15;32.17;;;12.60;;
41755;SDS011;27435;48.480;9.258;2022-12-18T14:22:45;33.40;;;14.27;;
41755;SDS011;27435;48.480;9.258;2022-12-18T14:25:18;32.63;;;13.10;;
41755;SDS011;27435;48.480;9.258;2022-12-18T14:27:47;45.90;;;16.27;;
41755;SDS011;27435;48.480;9.258;2022-12-18T14:33:02;35.40;;;12.73;;
41755;SDS011;27435;48.480;9.258;2022-12-18T14:35:35;28.70;;;10.75;;
41755;SDS011;27435;48.480;9.258;2022-12-18T14:40:41;35.17;;;14.07;;
41755;SDS011;27435;48.480;9.258;2022-12-18T14:43:09;37.90;;;12.13;;
41755;SDS011;27435;48.480;9.258;2022-12-18T14:45:45;32.43;;;12.87;;
41755;SDS011;27435;48.480;9.258;2022-12-18T14:50:40;29.63;;;11.47;;
41755;SDS011;27435;48.480;9.258;2022-12-18T14:53:05;34.80;;;12.90;;
41755;SDS011;27435;48.480;9.258;2022-12-18T14:55:43;35.77;;;12.10;;
41755;SDS011;27435;48.480;9.258;2022-12-18T14:58:11;34.67;;;13.30;;
41755;SDS011;27435;48.480;9.258;2022-12-18T15:00:41;33.63;;;11.43;;
41755;SDS011;27435;48.480;9.258;2022-12-18T15:03:07;34.20;;;13.53;;
41755;SDS011;27435;48.480;9.258;2022-12-18T15:05:34;40.17;;;14.03;;
41755;SDS011;27435;48.480;9.258;2022-12-18T15:08:00;33.53;;;12.70;;
41755;SDS011;27435;48.480;9.258;2022-12-18T15:10:31;31.93;;;11.97;;
41755;SDS011;27435;48.480;9.258;2022-12-18T15:20:42;32.60;;;13.23;;
41755;SDS011;27435;48.480;9.258;2022-12-18T15:23:20;35.63;;;12.63;;
41755;SDS011;27435;48.480;9.258;2022-12-18T15:25:48;31.77;;;12.30;;
41755;SDS011;27435;48.480;9.258;2022-12-18T15:28:23;34.80;;;12.97;;
41755;SDS011;27435;48.480;9.258;2022-12-18T15:34:18;34.77;;;12.63;;
41755;SDS011;27435;48.480;9.258;2022-12-18T15:36:46;40.07;;;14.50;;
41755;SDS011;27435;48.480;9.258;2022-12-18T15:39:12;32.40;;;13.10;;
41755;SDS011;27435;48.480;9.258;2022-12-18T15:41:38;41.63;;;12.57;;
41755;SDS011;27435;48.480;9.258;2022-12-18T15:44:23;34.67;;;13.17;;
41755;SDS011;27435;48.480;9.258;2022-12-18T15:46:49;36.25;;;13.57;;
41755;SDS011;27435;48.480;9.258;2022-12-18T15:49:15;36.03;;;13.57;;
41755;SDS011;27435;48.480;9.258;2022-12-18T15:51:40;39.77;;;13.33;;
41755;SDS011;27435;48.480;9.258;2022-12-18T15:54:09;41.07;;;14.27;;
41755;SDS011;27435;48.480;9.258;2022-12-18T15:56:38;37.80;;;13.63;;
41755;SDS011;27435;48.480;9.258;2022-12-18T15:59:22;37.40;;;12.30;;
41755;SDS011;27435;48.480;9.258;2022-12-18T16:01:49;40.90;;;13.43;;
41755;SDS011;27435;48.480;9.258;2022-12-18T16:04:16;35.30;;;12.80;;
41755;SDS011;27435;48.480;9.258;2022-12-18T16:06:45;45.40;;;15.47;;
41755;SDS011;27435;48.480;9.258;2022-12-18T16:09:11;40.43;;;13.13;;
41755;SDS011;27435;48.480;9.258;2022-12-18T16:11:37;36.83;;;14.07;;
41755;SDS011;27435;48.480;9.258;2022-12-18T16:17:01;34.20;;;13.40;;
41755;SDS011;27435;48.480;9.258;2022-12-18T16:19:30;44.03;;;14.37;;
41755;SDS011;27435;48.480;9.258;2022-12-18T16:21:57;44.40;;;15.67;;
41755;SDS011;27435;48.480;9.258;2022-12-18T16:24:24;37.70;;;13.43;;
41755;SDS011;27435;48.480;9.258;2022-12-18T16:26:52;43.57;;;15.17;;
41755;SDS011;27435;48.480;9.258;2022-12-18T16:29:19;41.67;;;15.53;;
41755;SDS011;27435;48.480;9.258;2022-12-18T16:31:51;39.93;;;14.73;;
41755;SDS011;27435;48.480;9.258;2022-12-18T16:34:22;43.27;;;16.43;;
41755;SDS011;27435;48.480;9.258;2022-12-18T16:36:52;42.30;;;15.87;;
41755;SDS011;27435;48.480;9.258;2022-12-18T16:39:19;40.77;;;14.80;;
41755;SDS011;27435;48.480;9.258;2022-12-18T16:41:45;42.93;;;14.43;;
41755;SDS011;27435;48.480;9.258;2022-12-18T16:44:12;44.10;;;14.00;;
41755;SDS011;27435;48.480;9.258;2022-12-18T16:46:38;45.63;;;16.17;;
41755;SDS011;27435;48.480;9.258;2022-12-18T16:49:07;46.63;;;14.63;;
41755;SDS011;27435;48.480;9.258;2022-12-18T16:51:33;44.03;;;16.73;;
41755;SDS011;27435;48.480;9.258;2022-12-18T16:53:59;44.10;;;14.60;;
41755;SDS011;27435;48.480;9.258;2022-12-18T16:56:25;36.20;;;12.40;;
41755;SDS011;27435;48.480;9.258;2022-12-18T16:58:54;34.17;;;13.47;;
41755;SDS011;27435;48.480;9.258;2022-12-18T17:01:21;40.83;;;14.73;;